createdAt,value
2023-04-15T00:04:28.404Z,2.15
2023-04-15T00:09:31.115Z,1.97
2023-04-15T00:14:35.142Z,1.07
2023-04-15T00:19:37.470Z,1.45
2023-04-15T00:24:40.451Z,2.04
2023-04-15T00:29:42.948Z,1.30
2023-04-15T00:34:45.953Z,1.45
2023-04-15T00:39:48.334Z,0.96
2023-04-15T00:44:50.801Z,0.97
2023-04-15T00:49:53.714Z,1.67
2023-04-15T00:54:56.012Z,0.91
2023-04-15T00:59:58.689Z,1.17
2023-04-15T01:05:01.361Z,1.34
2023-04-15T01:10:05.093Z,1.35
2023-04-15T01:15:08.452Z,0.49
2023-04-15T01:20:11.954Z,0.94
2023-04-15T01:25:19.706Z,-1.81
2023-04-15T01:30:22.198Z,0.21
2023-04-15T01:35:24.528Z,0.14
2023-04-15T01:40:27.034Z,1.35
2023-04-15T01:45:30.619Z,0.63
2023-04-15T01:50:34.469Z,0.55
2023-04-15T01:55:38.043Z,1.22
2023-04-15T02:00:45.817Z,0.44
2023-04-15T02:05:49.672Z,0.71
2023-04-15T02:10:53.259Z,0.78
2023-04-15T02:15:57.809Z,1.06
2023-04-15T02:21:01.450Z,1.04
2023-04-15T02:26:04.955Z,0.75
2023-04-15T02:31:09.965Z,0.34
2023-04-15T02:36:13.755Z,0.52
2023-04-15T02:41:17.785Z,0.05
2023-04-15T02:46:23.344Z,0.51
2023-04-15T02:51:26.984Z,0.23
2023-04-15T02:56:31.298Z,0.03
2023-04-15T03:01:34.942Z,0.82
2023-04-15T03:06:38.558Z,0.81
2023-04-15T03:11:43.992Z,0.46
2023-04-15T03:16:47.534Z,0.59
2023-04-15T03:21:53.408Z,0.76
2023-04-15T03:26:58.184Z,0.75
2023-04-15T03:32:02.219Z,0.49
2023-04-15T03:37:09.760Z,0.37
2023-04-15T03:42:13.397Z,0.74
2023-04-15T03:47:16.901Z,0.36
2023-04-15T03:52:21.792Z,0.39
2023-04-15T03:57:25.335Z,0.73
2023-04-15T04:02:29.026Z,0.76
2023-04-15T04:07:32.749Z,0.50
2023-04-15T04:12:36.387Z,0.67
2023-04-15T04:17:40.025Z,0.12
2023-04-15T04:22:43.617Z,0.74
2023-04-15T04:27:47.477Z,-0.07
2023-04-15T04:32:52.015Z,0.85
2023-04-15T04:37:55.636Z,1.05
2023-04-15T04:42:59.241Z,0.95
2023-04-15T04:48:02.901Z,0.94
2023-04-15T04:53:06.582Z,0.99
2023-04-15T04:58:10.109Z,1.17
2023-04-15T05:03:13.860Z,0.60
2023-04-15T05:08:17.481Z,0.52
2023-04-15T05:13:22.791Z,1.17
2023-04-15T05:18:26.516Z,-0.05
2023-04-15T05:23:30.076Z,1.06
2023-04-15T05:28:33.626Z,1.08
2023-04-15T05:33:37.423Z,1.13
2023-04-15T05:38:41.390Z,1.52
2023-04-15T05:43:46.397Z,1.00
2023-04-15T05:48:49.969Z,1.71
2023-04-15T05:53:53.651Z,1.83
2023-04-15T05:58:57.259Z,1.77
2023-04-15T06:04:00.854Z,1.83
2023-04-15T06:09:05.101Z,1.36
2023-04-15T06:14:08.758Z,1.62
2023-04-15T06:19:12.762Z,1.95
2023-04-15T06:24:16.497Z,2.29
2023-04-15T06:29:20.041Z,2.43
2023-04-15T06:34:23.666Z,2.58
2023-04-15T06:39:27.418Z,2.32
2023-04-15T06:44:33.295Z,1.82
2023-04-15T06:49:37.507Z,2.19
2023-04-15T06:54:41.255Z,0.56
2023-04-15T06:59:44.763Z,2.32
2023-04-15T07:25:01.769Z,3.69
2023-04-15T07:30:05.855Z,3.97
2023-04-15T07:35:10.136Z,3.89
2023-04-15T07:40:15.010Z,4.61
2023-04-15T07:45:18.649Z,4.70
2023-04-15T07:50:23.359Z,5.18
2023-04-15T07:55:28.253Z,4.87
2023-04-15T08:00:32.487Z,4.71
2023-04-15T08:05:35.970Z,5.97
2023-04-15T08:10:39.475Z,6.02
2023-04-15T08:15:43.701Z,6.07
2023-04-15T08:20:48.108Z,5.19
2023-04-15T08:25:51.616Z,6.36
2023-04-15T08:30:55.967Z,6.50
2023-04-15T08:35:59.498Z,6.37
2023-04-15T08:41:26.952Z,6.53
2023-04-15T08:46:33.216Z,6.70
2023-04-15T08:51:37.054Z,6.41
2023-04-15T08:56:41.109Z,6.89
2023-04-15T09:01:44.699Z,6.86
2023-04-15T09:06:48.458Z,7.06
2023-04-15T09:11:51.989Z,6.05
2023-04-15T09:17:28.470Z,7.06
2023-04-15T09:23:02.661Z,6.37
2023-04-15T09:28:06.660Z,6.68
2023-04-15T09:33:11.348Z,6.92
2023-04-15T09:38:15.050Z,6.90
2023-04-15T09:43:18.908Z,7.15
2023-04-15T09:48:26.830Z,7.26
2023-04-15T09:53:31.819Z,7.22
2023-04-15T09:58:37.501Z,7.54
2023-04-15T10:03:42.665Z,7.55
2023-04-15T10:08:46.768Z,7.63
2023-04-15T10:13:51.584Z,7.08
2023-04-15T10:18:56.861Z,7.65
2023-04-15T10:24:02.387Z,7.47
2023-04-15T10:29:06.498Z,7.64
2023-04-15T10:34:10.531Z,7.89
2023-04-15T10:39:45.641Z,8.15
2023-04-15T10:44:52.301Z,8.12
2023-04-15T10:50:00.839Z,8.22
2023-04-15T10:55:16.369Z,8.09
2023-04-15T11:00:21.017Z,7.79
2023-04-15T11:05:54.014Z,8.44
2023-04-15T11:10:57.694Z,8.44
2023-04-15T11:16:02.231Z,8.06
2023-04-15T11:21:07.753Z,7.92
2023-04-15T11:26:14.221Z,8.31
2023-04-15T11:31:20.419Z,7.66
2023-04-15T11:36:28.251Z,8.66
2023-04-15T11:41:32.209Z,6.04
2023-04-15T11:46:36.002Z,6.34
2023-04-15T11:51:39.881Z,8.77
2023-04-15T11:56:42.350Z,7.28
2023-04-15T12:01:46.987Z,8.91
2023-04-15T12:06:49.913Z,7.91
2023-04-15T12:11:56.074Z,6.53
2023-04-15T12:17:03.311Z,9.02
2023-04-15T12:22:16.152Z,9.10
2023-04-15T12:27:29.799Z,7.67
2023-04-15T12:32:47.936Z,5.90
2023-04-15T12:37:57.823Z,8.76
2023-04-15T12:48:37.923Z,8.94
2023-04-15T12:53:47.439Z,8.82
2023-04-15T12:58:55.041Z,9.20
2023-04-15T13:04:15.202Z,9.15
2023-04-15T13:09:29.379Z,8.75
2023-04-15T13:14:37.775Z,8.58
2023-04-15T13:19:59.991Z,9.47
2023-04-15T13:25:22.632Z,9.55
2023-04-15T13:30:52.254Z,8.36
2023-04-15T13:36:01.743Z,9.53
2023-04-15T13:46:52.698Z,9.37
2023-04-15T13:52:15.154Z,8.52
2023-04-15T14:03:01.936Z,9.56
2023-04-15T14:08:10.020Z,9.40
2023-04-15T14:19:00.566Z,9.48
2023-04-15T14:24:08.075Z,9.45
2023-04-15T14:29:11.767Z,9.33
2023-04-15T14:34:14.553Z,9.43
2023-04-15T14:39:24.180Z,9.40
2023-04-15T14:44:29.334Z,9.36
2023-04-15T14:49:32.814Z,9.31
2023-04-15T14:54:35.412Z,8.95
2023-04-15T14:59:37.811Z,9.04
2023-04-15T15:04:41.083Z,8.88
2023-04-15T15:09:43.576Z,9.14
2023-04-15T15:14:47.018Z,8.50
2023-04-15T15:19:49.440Z,8.76
2023-04-15T15:24:52.064Z,8.81
2023-04-15T15:30:11.349Z,9.01
2023-04-15T15:35:16.985Z,7.55
2023-04-15T15:40:19.567Z,8.79
2023-04-15T15:45:22.468Z,8.72
2023-04-15T15:50:24.865Z,8.23
2023-04-15T15:55:27.883Z,8.27
2023-04-15T16:00:30.372Z,8.32
2023-04-15T16:05:32.737Z,8.36
2023-04-15T16:10:35.473Z,8.28
2023-04-15T16:15:38.069Z,8.22
2023-04-15T16:20:40.711Z,8.05
2023-04-15T16:25:44.468Z,7.77
2023-04-15T16:31:02.274Z,8.05
2023-04-15T16:36:07.304Z,7.39
2023-04-15T16:41:10.068Z,7.67
2023-04-15T16:46:12.461Z,7.67
2023-04-15T16:51:14.836Z,7.31
2023-04-15T16:56:17.340Z,6.91
2023-04-15T17:01:20.748Z,6.96
2023-04-15T17:06:23.196Z,7.08
2023-04-15T17:11:26.474Z,6.88
2023-04-15T17:16:30.853Z,6.82
2023-04-15T17:21:33.477Z,6.87
2023-04-15T17:26:37.839Z,6.73
2023-04-15T17:32:04.045Z,6.21
2023-04-15T17:37:29.408Z,6.50
2023-04-15T17:42:51.787Z,6.46
2023-04-15T17:48:14.749Z,6.33
2023-04-15T17:53:40.134Z,6.02
2023-04-15T17:59:06.283Z,5.93
2023-04-15T18:04:31.620Z,6.07
2023-04-15T18:09:56.193Z,5.72
2023-04-15T18:15:19.020Z,5.90
2023-04-15T18:20:41.463Z,5.51
2023-04-15T18:25:45.983Z,5.64
2023-04-15T18:30:48.698Z,5.70
2023-04-15T18:35:51.336Z,5.55
2023-04-15T18:40:57.160Z,5.24
2023-04-15T18:46:04.213Z,5.40
2023-04-15T18:51:09.672Z,5.50
2023-04-15T18:56:13.106Z,5.38
2023-04-15T19:01:15.858Z,5.17
2023-04-15T19:06:21.061Z,5.29
2023-04-15T19:11:30.962Z,5.01
2023-04-15T19:16:33.415Z,4.97
2023-04-15T19:21:35.915Z,5.16
2023-04-15T19:26:38.446Z,5.53
2023-04-15T19:31:40.908Z,5.22
2023-04-15T19:36:43.333Z,5.11
2023-04-15T19:41:57.970Z,5.22
2023-04-15T19:47:00.475Z,5.29
2023-04-15T19:52:04.546Z,5.29
2023-04-15T19:57:07.053Z,5.24
2023-04-15T20:02:09.681Z,5.16
2023-04-15T20:07:12.231Z,4.68
2023-04-15T20:12:49.807Z,4.51
2023-04-15T20:17:37.446Z,4.23
2023-04-15T20:22:39.983Z,5.15
2023-04-15T20:27:42.468Z,5.27
2023-04-15T20:32:44.939Z,5.24
2023-04-15T20:37:47.466Z,5.06
2023-04-15T20:42:56.840Z,5.17
2023-04-15T20:47:59.385Z,5.16
2023-04-15T20:53:02.031Z,5.12
2023-04-15T20:58:04.736Z,4.77
2023-04-15T21:03:07.370Z,4.87
2023-04-15T21:08:10.420Z,4.40
2023-04-15T21:13:15.544Z,4.80
2023-04-15T21:18:17.874Z,4.05
2023-04-15T21:23:20.236Z,4.51
2023-04-15T21:28:22.861Z,4.53
2023-04-15T21:33:25.602Z,4.29
2023-04-15T21:38:28.051Z,4.38
2023-04-15T21:43:30.379Z,4.29
2023-04-15T21:48:32.805Z,4.20
2023-04-15T21:53:35.253Z,4.09
2023-04-15T21:58:37.730Z,3.91
2023-04-15T22:03:40.496Z,3.71
2023-04-15T22:08:54.890Z,3.72
2023-04-15T22:13:59.099Z,3.77
2023-04-15T22:19:03.010Z,3.21
2023-04-15T22:24:33.923Z,3.58
2023-04-15T22:29:28.505Z,3.34
2023-04-15T22:34:30.841Z,3.55
2023-04-15T22:39:33.092Z,3.56
2023-04-15T22:44:35.354Z,2.69
2023-04-15T22:49:37.646Z,3.74
2023-04-15T22:54:42.667Z,3.56
2023-04-15T22:59:45.011Z,3.55
2023-04-15T23:04:47.458Z,3.69
2023-04-15T23:09:49.808Z,3.51
2023-04-15T23:14:52.066Z,3.67
2023-04-15T23:19:54.341Z,3.55
2023-04-15T23:24:56.867Z,3.48
2023-04-15T23:29:59.288Z,3.59
2023-04-15T23:35:02.288Z,3.56
2023-04-15T23:40:06.823Z,3.29
2023-04-15T23:45:10.211Z,3.24
2023-04-15T23:50:21.609Z,3.43
2023-04-15T23:55:26.824Z,3.17
